Beaverton, OR (97005)

10:14 PM PST on February 12, 2016 (GMT -0800)
Walker/217 | | Change Station
CLOSE
Current Station
Personal Weather Station
Location: Beaverton, OR
Elevation: 223 ft
Nearby Weather Stations

Elev 223 ft 45.50 °N, 122.79 °W | Updated 4 seconds ago

Partly Cloudy
Partly Cloudy
45.9 °F
Feels Like 46 °F
N
0.0
Wind Variable Wind from North
Gusts 0.4 mph

Today
High -- | Low -- °F
--% Chance of Precip.
Yesterday
High -- | Low -- °F
Precip. -- in
Pressure 30.26 in
Visibility 10.0 miles
Clouds Clear
Windchill 46 °F
Dew Point 42 °F
Humidity 85%
Rainfall 0.09 in
Snow Depth Not available.
7:18 AM 5:33 PM
Waxing Crescent, 27% visible
METAR KHIO 130553Z 00000KT 10SM CLR 07/05 A3026 RMK AO2 SLP247 T00720050 10144 20061 53012
Pressure 30.26 in
Visibility 10.0 miles
Clouds Clear
Windchill 46 °F
Dew Point 42 °F
Humidity 85%
Rainfall 0.09 in
Snow Depth Not available.
7:18 AM 5:33 PM
Waxing Crescent, 27% visible
METAR KHIO 130553Z 00000KT 10SM CLR 07/05 A3026 RMK AO2 SLP247 T00720050 10144 20061 53012

10-Day Weather Forecast

Almanac

Astronomy

Feb. 12, 2016 Rise Set
Actual Time
Civil Twilight
Nautical Twilight
Astronomical Twilight
Moon
Length of Visible Light
Length of Day
Tomorrow will be .
, % of the Moon is Illuminated

Today's Extremes

State Highs State Lows

Community

WunderPhotos

Upload Photos

1,892,513 photos uploaded!

WunderBlog® & News

Nearby

Air Quality

  Air Quality AQ Index Pollutant
Not available.

Snow Depth

Station Depth Elevation

Earthquake Activity

City Distance Mag. Time & Date
Minimum magnitude displayed is 2.5.

Coastal Water Temperatures

Place Temperature

Stations

Nearby Weather Stations

Station Location Temp. Windchill Dew Point Humidity Wind Precip. Elev Updated Type
                   

Watches & Warnings

There are currently no watches in effect.